SLOA4: Illinois River nr Siloam Springs AR

                                SHEF ID:       SLOA4     Illinois River South of Siloam S
STATION TYPE:

STAGE RIV-FLOW BAT-LOAD
ft cfs volt
Ccp-Rev Ccp-Rev Ccp-Rev
(America/Chicago)
04/28 00:00 5.38 1644 12.07
04/28 01:00 5.33 1612 12.04
04/28 02:00 5.29 1586 12.02
04/28 03:00 5.25 1558 12.00
04/28 04:00 5.22 1535 11.97
04/28 05:00 5.18 1506 11.95
04/28 06:00 5.15 1483 11.93
04/28 07:00 5.10 1447 11.91
04/28 08:00 5.06 1418 12.13
04/28 09:00 5.03 1396 12.90
04/28 10:00 5.01 1382 13.11
04/28 11:00 4.99 1368 12.63
04/28 12:00 4.99 1368 13.01
04/28 13:00 4.96 1347 12.79
04/28 14:00 4.94 1333 13.06
04/28 15:00 4.93 1326 12.71
04/28 16:00 4.90 1306 12.57
04/28 17:00 4.93 1326 12.53
04/28 18:00 4.96 1347 12.37
04/28 19:00 5.00 1375 12.63
04/28 20:00 5.18 1506 12.50
04/28 21:00 5.51 1731 12.31
04/28 22:00 5.77 1909 12.24
04/28 23:00 5.81 1938 12.21
Data processed at Wed 29Apr2026 04:18 GMT

NOTICE: If you are parsing this page

Please convert to using our Data API. Starting early 2026 we will be migrating to: https://water.usace.army.mil with modern pages rendered in JavaScript. When this migration completes you will no longer be able to scrape this page! CWMSDataAPI (CDA)

Timeseries IDs (TSIDs)

TSIDs used from left to right in the data table
SILO.Stage.Inst.1Hour.0.Ccp-Rev
SILO.Flow.Inst.1Hour.0.Ccp-Rev
SILO.Volt-Battery Load.Inst.1Hour.0.Ccp-Rev

                            

All information presented herein is the property of the government of the United States of America and may be revised or deleted at any time without prior notice. Dissemination of this information without the expressed written consent of the Public Affairs Office, Tulsa District U.S. Army Corps of Engineers is strictly prohibited. These data are gathered electronically and, as presented, have NOT undergone any form of quality control. These data are NOT guaranteed to be valid or correct.